Time;durP1;ratioP1;P1;durP2;ratioP2;P2;SDS_P1;SDS_P2;PMS_P1;PMS_P2;Temp;Humidity;BMP_temperature;BMP_pressure;BME280_temperature;BME280_humidity;BME280_pressure;Samples;Min_cycle;Max_cycle;Signal;HPM_P1;HPM_P2
2023/12/11 00:00:15;;;;;;;;;;;;;;;3.97;100.00;98589.38;4934924;29;19922;-81
2023/12/11 00:02:41;;;;;;;;;;;;;;;3.99;100.00;98587.53;4948369;28;19974;-81
2023/12/11 00:05:12;;;;;;;;;;;;;;;3.97;100.00;98592.00;4934812;29;20370;-91
2023/12/11 00:07:37;;;;;;;;;;;;;;;3.92;100.00;98595.66;4934382;29;19923;-83
2023/12/11 00:10:02;;;;;;;;;;;;;;;4.02;100.00;98594.44;4934616;29;20327;-84
2023/12/11 00:12:27;;;;;;;;;;;;;;;3.99;100.00;98594.56;4933168;29;19923;-84
2023/12/11 00:14:53;;;;;;;;;;;;;;;3.97;100.00;98598.97;4933463;29;19953;-81
2023/12/11 00:17:18;;;;;;;;;;;;;;;4.00;100.00;98598.88;4933425;29;19986;-81
2023/12/11 00:19:43;;;;;;;;;;;;;;;4.04;100.00;98597.88;4934597;29;20441;-83
2023/12/11 00:22:08;;;;;;;;;;;;;;;4.04;100.00;98597.88;4934326;29;20015;-83
2023/12/11 00:24:34;;;;;;;;;;;;;;;3.96;100.00;98602.53;4933516;29;19954;-84
2023/12/11 00:27:00;;;;;;;;;;;;;;;3.92;100.00;98608.75;4934359;29;19918;-83
2023/12/11 00:29:33;;;;;;;;;;;;;;;4.02;100.00;98601.44;4933170;29;19922;-90
2023/12/11 00:31:59;;;;;;;;;;;;;;;3.94;100.00;98599.06;4931635;29;19919;-86
2023/12/11 00:34:24;;;;;;;;;;;;;;;3.91;100.00;98586.06;4934213;29;19994;-83
2023/12/11 00:36:49;;;;;;;;;;;;;;;3.95;100.00;98601.66;4933052;29;19970;-84
2023/12/11 00:39:16;;;;;;;;;;;;;;;4.04;100.00;98597.00;4932900;29;19923;-86
2023/12/11 00:41:43;;;;;;;;;;;;;;;3.98;100.00;98600.69;4932898;29;19919;-85
2023/12/11 00:44:08;;;;;;;;;;;;;;;3.97;100.00;98607.72;4934182;29;20065;-84
2023/12/11 00:46:33;;;;;;;;;;;;;;;3.99;100.00;98603.25;4934221;29;19998;-85
2023/12/11 00:48:58;;;;;;;;;;;;;;;3.95;100.00;98603.41;4933447;29;19923;-84
2023/12/11 00:51:24;;;;;;;;;;;;;;;3.97;100.00;98604.22;4932597;29;20387;-84
2023/12/11 00:53:49;;;;;;;;;;;;;;;3.96;100.00;98599.91;4934030;29;20394;-82
2023/12/11 00:56:14;;;;;;;;;;;;;;;3.96;100.00;98610.38;4934060;29;20289;-83
2023/12/11 00:58:39;;;;;;;;;;;;;;;3.93;100.00;98611.34;4934561;29;19918;-84
2023/12/11 08:57:06;;;;;;;;;;;;;;;7.35;100.00;98600.78;5719286;23;19934;-83
2023/12/11 08:59:32;;;;;;;;;;;;;;;7.38;100.00;98598.00;4969678;28;19926;-81
2023/12/11 09:01:57;;;;;;;;;;;;;;;6.57;100.00;98603.53;4973281;28;19989;-81
2023/12/11 09:04:22;;;;;;;;;;;;;;;6.06;100.00;98603.13;4955827;28;19925;-81
2023/12/11 09:06:48;;;;;;;;;;;;;;;5.88;100.00;98599.50;4955823;28;19926;-81
2023/12/11 09:09:13;;;;;;;;;;;;;;;5.74;100.00;98596.59;4972529;28;19922;-81
2023/12/11 09:11:39;;;;;;;;;;;;;;;5.67;100.00;98603.03;4954325;28;19969;-77
2023/12/11 09:14:04;;;;;;;;;;;;;;;5.60;100.00;98595.41;4973056;28;20484;-81
2023/12/11 09:16:29;;;;;;;;;;;;;;;5.64;100.00;98583.84;4955298;28;20464;-81
2023/12/11 09:18:54;;;;;;;;;;;;;;;5.51;100.00;98590.53;4955904;28;20289;-81
2023/12/11 09:21:22;;;;;;;;;;;;;;;5.43;100.00;98592.63;4955590;28;20285;-82
2023/12/11 09:23:47;;;;;;;;;;;;;;;5.42;100.00;98591.75;4955772;28;19926;-82
2023/12/11 09:26:12;;;;;;;;;;;;;;;5.30;100.00;98591.38;4970360;28;19921;-82
2023/12/11 09:28:39;;;;;;;;;;;;;;;5.21;100.00;98609.22;4972551;28;19929;-83
2023/12/11 09:31:04;;;;;;;;;;;;;;;5.22;100.00;98603.06;4958222;28;19946;-82
2023/12/11 09:33:30;;;;;;;;;;;;;;;5.27;100.00;98606.38;4976099;28;20008;-80
2023/12/11 09:35:55;;;;;;;;;;;;;;;5.12;100.00;98617.47;4976848;28;19962;-83
2023/12/11 09:38:21;;;;;;;;;;;;;;;5.20;100.00;98615.41;4959318;28;20020;-83
2023/12/11 09:40:46;;;;;;;;;;;;;;;5.17;100.00;98627.78;4958832;28;19926;-82
2023/12/11 09:43:12;;;;;;;;;;;;;;;5.12;100.00;98630.59;4975619;28;19926;-84
2023/12/11 09:45:37;;;;;;;;;;;;;;;5.00;100.00;98623.22;4976805;28;19929;-83
2023/12/11 09:48:03;;;;;;;;;;;;;;;5.09;100.00;98622.88;4976681;28;19925;-82
2023/12/11 09:50:31;;;;;;;;;;;;;;;4.97;100.00;98628.59;4976634;28;19922;-91
2023/12/11 09:52:57;;;;;;;;;;;;;;;4.87;100.00;98628.94;4975668;28;19926;-84
2023/12/11 09:55:22;;;;;;;;;;;;;;;4.89;100.00;98629.72;4958191;28;20366;-86
2023/12/11 09:57:48;;;;;;;;;;;;;;;4.86;100.00;98635.09;4975285;28;19932;-83
2023/12/11 10:00:13;;;;;;;;;;;;;;;4.87;100.00;98633.34;4976075;28;20373;-82
2023/12/11 10:02:39;;;;;;;;;;;;;;;4.82;100.00;98633.50;4958583;28;19934;-81
2023/12/11 10:05:08;;;;;;;;;;;;;;;4.87;100.00;98635.97;4957613;28;19930;-82
2023/12/11 10:07:35;;;;;;;;;;;;;;;4.79;100.00;98633.63;4958227;28;19928;-92
2023/12/11 10:10:18;;;;;;;;;;;;;;;4.72;100.00;98637.38;4958638;28;19930;-82
2023/12/11 10:12:44;;;;;;;;;;;;;;;4.70;100.00;98633.97;4974614;28;20313;-87
2023/12/11 10:15:09;;;;;;;;;;;;;;;4.75;100.00;98633.78;4958200;28;19930;-81
2023/12/11 10:17:34;;;;;;;;;;;;;;;4.74;100.00;98640.81;4958192;28;20436;-82
2023/12/11 10:19:59;;;;;;;;;;;;;;;4.66;100.00;98648.97;4975692;28;20400;-82
2023/12/11 10:22:31;;;;;;;;;;;;;;;4.68;100.00;98647.13;4958410;28;19934;-81
2023/12/11 10:24:58;;;;;;;;;;;;;;;4.75;100.00;98639.03;4975374;28;20456;-81
2023/12/11 10:27:23;;;;;;;;;;;;;;;4.66;100.00;98638.47;4957250;28;20333;-83
2023/12/11 10:30:05;;;;;;;;;;;;;;;4.64;100.00;98634.19;4957637;28;20009;-81
2023/12/11 10:32:30;;;;;;;;;;;;;;;4.54;100.00;98642.38;4958070;28;19926;-81
2023/12/11 10:34:55;;;;;;;;;;;;;;;4.53;100.00;98638.06;4975742;28;19925;-82
2023/12/11 10:37:27;;;;;;;;;;;;;;;4.55;100.00;98645.88;4958334;28;19922;-83
2023/12/11 10:39:56;;;;;;;;;;;;;;;4.52;100.00;98644.22;4957750;28;20381;-84
2023/12/11 10:42:21;;;;;;;;;;;;;;;4.55;100.00;98638.00;4955210;28;19933;-81
2023/12/11 10:44:47;;;;;;;;;;;;;;;4.49;100.00;98633.81;4975579;28;19918;-82
2023/12/11 10:47:13;;;;;;;;;;;;;;;4.55;100.00;98632.75;4974964;28;19945;-82
2023/12/11 10:49:39;;;;;;;;;;;;;;;4.44;100.00;98627.91;4973041;28;20293;-82
2023/12/11 10:52:05;;;;;;;;;;;;;;;4.46;100.00;98626.06;4974260;28;19934;-83
2023/12/11 10:54:31;;;;;;;;;;;;;;;4.52;100.00;98625.84;4974027;28;20278;-81
2023/12/11 10:56:59;;;;;;;;;;;;;;;4.52;100.00;98623.22;4973382;28;19922;-81
2023/12/11 10:59:24;;;;;;;;;;;;;;;4.47;100.00;98619.91;4957032;28;19927;-81
2023/12/11 11:01:50;;;;;;;;;;;;;;;4.42;100.00;98618.38;4957869;28;19925;-84
2023/12/11 11:04:17;;;;;;;;;;;;;;;4.48;100.00;98626.00;4957247;28;19923;-81
2023/12/11 11:06:47;;;;;;;;;;;;;;;4.43;100.00;98623.56;4974214;28;20499;-81
2023/12/11 11:09:14;;;;;;;;;;;;;;;4.43;100.00;98620.94;4974453;28;19926;-80
2023/12/11 11:11:43;;;;;;;;;;;;;;;4.33;100.00;98630.91;4950282;28;19926;-80
2023/12/11 11:14:36;;;;;;;;;;;;;;;4.34;100.00;98631.75;4957721;28;19993;-81
2023/12/11 11:17:01;;;;;;;;;;;;;;;4.38;100.00;98635.13;4956889;28;19918;-90
2023/12/11 11:19:29;;;;;;;;;;;;;;;4.28;100.00;98632.00;4954479;28;20329;-82
2023/12/11 11:22:17;;;;;;;;;;;;;;;4.38;100.00;98638.59;4956850;28;20325;-87
2023/12/11 11:24:42;;;;;;;;;;;;;;;4.32;100.00;98638.81;4963989;28;20012;-83
2023/12/11 11:27:41;;;;;;;;;;;;;;;4.30;100.00;98630.16;4955966;28;20474;-81
2023/12/11 11:30:07;;;;;;;;;;;;;;;4.29;100.00;98628.44;4920827;28;19957;-83
2023/12/11 11:32:53;;;;;;;;;;;;;;;4.29;100.00;98620.56;4956484;28;19922;-82
2023/12/11 11:35:44;;;;;;;;;;;;;;;4.22;100.00;98633.06;4973183;28;19972;-81
2023/12/11 11:38:09;;;;;;;;;;;;;;;4.24;100.00;98636.47;4973642;28;20541;-82
2023/12/11 11:40:36;;;;;;;;;;;;;;;13.34;100.00;98619.53;4973713;28;19933;-85
2023/12/11 11:43:03;;;;;;;;;;;;;;;12.99;100.00;98591.00;4972633;28;19922;-85
2023/12/11 11:45:29;;;;;;;;;;;;;;;7.46;100.00;98609.03;4973901;28;19922;-89
2023/12/11 11:47:54;;;;;;;;;;;;;;;6.38;100.00;98632.44;4974362;28;20281;-87
2023/12/11 11:50:19;;;;;;;;;;;;;;;7.32;100.00;98622.88;4956377;28;19930;-85
2023/12/11 11:52:54;;;;;;;;;;;;;;;6.98;100.00;98635.00;4972940;28;19925;-82
2023/12/11 11:55:26;;;;;;;;;;;;;;;6.02;100.00;98648.06;4956463;28;20321;-85
2023/12/11 11:57:52;;;;;;;;;;;;;;;7.27;100.00;98643.31;4952169;28;19987;-85
2023/12/11 12:00:22;;;;;;;;;;;;;;;8.73;100.00;98635.16;4953659;29;19947;-86
2023/12/11 12:02:54;;;;;;;;;;;;;;;9.61;100.00;98635.59;4953574;29;19934;-85
2023/12/11 12:05:19;;;;;;;;;;;;;;;7.22;100.00;98632.16;4954902;28;19922;-84
2023/12/11 12:07:45;;;;;;;;;;;;;;;6.00;100.00;98648.97;4953605;29;19945;-86
2023/12/11 12:10:11;;;;;;;;;;;;;;;5.66;100.00;98657.34;4953400;29;19923;-86
2023/12/11 12:12:36;;;;;;;;;;;;;;;5.44;100.00;98657.34;4944555;29;19925;-80
2023/12/11 12:15:04;;;;;;;;;;;;;;;5.22;100.00;98658.22;4954527;28;19922;-86
2023/12/11 12:17:29;;;;;;;;;;;;;;;5.19;100.00;98654.88;4953934;28;19922;-87
2023/12/11 12:19:54;;;;;;;;;;;;;;;5.05;100.00;98655.41;4954638;28;20017;-85
2023/12/11 12:22:20;;;;;;;;;;;;;;;5.08;100.00;98652.66;4953071;29;19978;-85
2023/12/11 12:24:48;;;;;;;;;;;;;;;4.94;100.00;98657.56;4953233;29;19926;-85
2023/12/11 12:27:15;;;;;;;;;;;;;;;4.88;100.00;98656.91;4953370;28;19918;-81
2023/12/11 12:29:42;;;;;;;;;;;;;;;4.96;100.00;98671.50;4954345;28;20406;-85
2023/12/11 12:32:08;;;;;;;;;;;;;;;4.85;100.00;98678.00;4953149;29;19919;-84
2023/12/11 12:34:35;;;;;;;;;;;;;;;4.86;100.00;98673.59;4953665;28;20373;-81
2023/12/11 12:37:01;;;;;;;;;;;;;;;4.90;100.00;98678.69;4953786;29;19930;-84
2023/12/11 12:39:26;;;;;;;;;;;;;;;4.80;100.00;98677.31;4954068;29;19962;-84
2023/12/11 12:41:52;;;;;;;;;;;;;;;4.84;100.00;98680.69;4953007;29;19972;-84
2023/12/11 12:44:20;;;;;;;;;;;;;;;4.82;100.00;98679.88;4954196;29;19962;-84
2023/12/11 12:46:46;;;;;;;;;;;;;;;4.78;100.00;98688.78;4952798;29;19918;-82
2023/12/11 12:49:15;;;;;;;;;;;;;;;4.71;100.00;98693.41;4954205;28;19933;-85
2023/12/11 12:51:44;;;;;;;;;;;;;;;4.57;100.00;98703.53;4954050;29;19929;-83
2023/12/11 12:54:10;;;;;;;;;;;;;;;4.54;100.00;98712.38;4952019;29;19919;-83
2023/12/11 12:56:36;;;;;;;;;;;;;;;4.57;100.00;98719.28;4952833;29;19966;-83
2023/12/11 12:59:02;;;;;;;;;;;;;;;4.52;100.00;98717.66;4968290;28;19976;-82
2023/12/11 13:01:27;;;;;;;;;;;;;;;4.49;100.00;98715.16;4955976;28;20348;-83
2023/12/11 13:03:58;;;;;;;;;;;;;;;4.48;100.00;98718.72;4973050;28;20405;-81
2023/12/11 13:06:26;;;;;;;;;;;;;;;4.43;100.00;98725.84;4955845;28;19929;-80
2023/12/11 13:08:52;;;;;;;;;;;;;;;4.45;100.00;98729.31;4955253;28;19918;-80
2023/12/11 13:11:17;;;;;;;;;;;;;;;4.93;100.00;98735.47;4971749;28;19949;-83
2023/12/11 13:13:55;;;;;;;;;;;;;;;5.27;100.00;98740.31;4955577;28;19922;-81
2023/12/11 13:16:20;;;;;;;;;;;;;;;5.48;100.00;98743.03;4971932;28;19969;-81
2023/12/11 13:18:49;;;;;;;;;;;;;;;5.56;100.00;98745.38;4972510;28;19965;-82
2023/12/11 13:21:15;;;;;;;;;;;;;;;5.59;100.00;98740.84;4972317;28;19933;-81
2023/12/11 13:23:40;;;;;;;;;;;;;;;5.63;100.00;98739.81;4955847;28;19922;-85
2023/12/11 13:26:05;;;;;;;;;;;;;;;5.64;100.00;98749.41;4954292;28;19919;-81
2023/12/11 13:28:31;;;;;;;;;;;;;;;5.66;100.00;98740.63;4968494;28;19918;-86
2023/12/11 13:30:57;;;;;;;;;;;;;;;5.63;100.00;98742.47;4955084;28;19933;-82
2023/12/11 13:33:22;;;;;;;;;;;;;;;5.55;100.00;98749.78;4954872;28;19968;-86
2023/12/11 13:35:48;;;;;;;;;;;;;;;5.48;100.00;98743.03;4951385;28;20004;-82
2023/12/11 13:38:13;;;;;;;;;;;;;;;5.40;100.00;98756.47;4972269;28;20402;-85
2023/12/11 13:40:38;;;;;;;;;;;;;;;5.39;100.00;98756.53;4955534;28;20065;-83
2023/12/11 13:43:04;;;;;;;;;;;;;;;5.40;100.00;98755.63;4954014;28;19922;-84
2023/12/11 13:45:29;;;;;;;;;;;;;;;5.42;100.00;98764.28;4954367;28;19996;-83
2023/12/11 13:47:54;;;;;;;;;;;;;;;5.45;100.00;98758.94;4971815;28;19929;-86
2023/12/11 13:50:19;;;;;;;;;;;;;;;5.54;100.00;98761.19;4972496;28;19932;-86
2023/12/11 13:52:45;;;;;;;;;;;;;;;5.61;100.00;98769.69;4972609;28;20429;-82
2023/12/11 13:55:10;;;;;;;;;;;;;;;5.75;100.00;98782.31;4955255;28;19925;-85
2023/12/11 13:57:36;;;;;;;;;;;;;;;5.86;100.00;98781.91;4954093;28;20485;-83
2023/12/11 14:00:01;;;;;;;;;;;;;;;5.93;100.00;98784.19;4972546;28;19926;-90
2023/12/11 14:02:26;;;;;;;;;;;;;;;6.04;100.00;98788.22;4955400;28;19978;-84
2023/12/11 14:04:52;;;;;;;;;;;;;;;6.17;100.00;98779.78;4971786;28;19976;-82
2023/12/11 14:07:17;;;;;;;;;;;;;;;6.29;100.00;98786.31;4955567;28;19929;-80
2023/12/11 14:09:42;;;;;;;;;;;;;;;6.38;100.00;98792.09;4972469;28;20421;-87
2023/12/11 14:12:08;;;;;;;;;;;;;;;6.46;100.00;98795.25;4954189;28;20365;-79
2023/12/11 14:14:34;;;;;;;;;;;;;;;6.53;100.00;98789.69;4955331;28;19918;-83
2023/12/11 14:16:59;;;;;;;;;;;;;;;6.59;100.00;98804.38;4973400;28;19966;-80
2023/12/11 14:19:24;;;;;;;;;;;;;;;6.66;100.00;98800.53;4975256;28;19926;-83
2023/12/11 14:21:49;;;;;;;;;;;;;;;6.74;100.00;98810.75;4975945;28;19961;-82
2023/12/11 14:24:15;;;;;;;;;;;;;;;6.83;100.00;98812.13;4957842;28;19926;-81
2023/12/11 14:26:40;;;;;;;;;;;;;;;6.90;100.00;98808.31;4973959;28;19922;-81
2023/12/11 14:29:06;;;;;;;;;;;;;;;6.97;100.00;98812.38;4957855;28;19926;-81
2023/12/11 14:31:31;;;;;;;;;;;;;;;7.04;100.00;98815.63;4957879;28;19949;-85
2023/12/11 14:33:57;;;;;;;;;;;;;;;7.07;100.00;98815.50;4974553;28;20412;-81
2023/12/11 14:36:22;;;;;;;;;;;;;;;7.16;100.00;98825.59;4955195;28;19929;-80
2023/12/11 14:38:48;;;;;;;;;;;;;;;7.20;100.00;98835.09;4974690;28;19968;-82
2023/12/11 14:41:14;;;;;;;;;;;;;;;7.26;100.00;98839.25;4956841;28;19921;-81
2023/12/11 14:43:40;;;;;;;;;;;;;;;7.28;100.00;98842.66;4957951;28;19926;-82
2023/12/11 14:46:05;;;;;;;;;;;;;;;7.34;100.00;98846.78;4974641;28;20012;-82
2023/12/11 14:48:30;;;;;;;;;;;;;;;7.36;100.00;98851.06;4974931;28;20048;-83
2023/12/11 14:50:56;;;;;;;;;;;;;;;7.43;100.00;98849.88;4957625;28;20000;-80
2023/12/11 14:53:21;;;;;;;;;;;;;;;7.45;100.00;98850.69;4975400;28;19922;-82
2023/12/11 14:55:46;;;;;;;;;;;;;;;7.48;100.00;98846.19;4957751;28;19925;-80
2023/12/11 14:58:11;;;;;;;;;;;;;;;7.55;100.00;98845.84;4952932;28;19923;-81
2023/12/11 15:00:36;;;;;;;;;;;;;;;7.56;100.00;98839.66;4955090;29;19933;-81
2023/12/11 15:03:02;;;;;;;;;;;;;;;7.56;100.00;98850.19;4954240;29;19929;-80
2023/12/11 15:05:27;;;;;;;;;;;;;;;7.62;100.00;98843.78;4955887;28;19922;-77
2023/12/11 15:07:52;;;;;;;;;;;;;;;7.65;100.00;98851.53;4954021;29;19922;-80
2023/12/11 15:10:18;;;;;;;;;;;;;;;7.67;100.00;98860.22;4954960;29;19923;-80
2023/12/11 15:12:43;;;;;;;;;;;;;;;7.70;100.00;98857.44;4954320;29;20389;-81
2023/12/11 15:15:08;;;;;;;;;;;;;;;7.73;100.00;98861.75;4954567;29;19923;-80
2023/12/11 15:17:34;;;;;;;;;;;;;;;7.77;100.00;98868.56;4955000;28;19922;-80
2023/12/11 15:20:05;;;;;;;;;;;;;;;7.78;100.00;98876.41;4955384;28;19926;-85
2023/12/11 15:22:31;;;;;;;;;;;;;;;7.22;100.00;98879.81;4954370;29;19925;-80
2023/12/11 15:24:56;;;;;;;;;;;;;;;6.60;100.00;98887.66;4953168;29;19996;-80
2023/12/11 15:27:21;;;;;;;;;;;;;;;6.31;100.00;98881.81;4953238;28;19931;-81
2023/12/11 15:29:46;;;;;;;;;;;;;;;6.12;100.00;98891.34;4955417;29;19924;-80
2023/12/11 15:32:14;;;;;;;;;;;;;;;6.03;100.00;98891.69;4955346;29;20399;-82
2023/12/11 15:34:41;;;;;;;;;;;;;;;5.91;100.00;98893.00;4954153;29;19922;-87
2023/12/11 15:37:06;;;;;;;;;;;;;;;5.85;100.00;98888.81;4953981;29;19969;-80
2023/12/11 15:39:31;;;;;;;;;;;;;;;5.78;100.00;98897.88;4953635;29;19927;-80
2023/12/11 15:41:56;;;;;;;;;;;;;;;5.76;100.00;98886.53;4953749;29;19922;-82
2023/12/11 15:44:22;;;;;;;;;;;;;;;5.76;100.00;98887.41;4953512;29;19930;-83
2023/12/11 15:46:47;;;;;;;;;;;;;;;5.74;100.00;98889.22;4952976;29;19929;-81
2023/12/11 15:49:12;;;;;;;;;;;;;;;5.66;100.00;98893.06;4952476;29;19918;-81
2023/12/11 15:51:38;;;;;;;;;;;;;;;5.54;100.00;98895.22;4955096;28;19925;-81
2023/12/11 15:54:03;;;;;;;;;;;;;;;5.58;100.00;98907.31;4955001;29;20266;-82
2023/12/11 15:56:31;;;;;;;;;;;;;;;5.55;100.00;98906.59;4951446;29;19923;-82
2023/12/11 15:59:00;;;;;;;;;;;;;;;5.52;100.00;98912.81;4968413;28;19922;-84
2023/12/11 16:01:25;;;;;;;;;;;;;;;5.55;100.00;98917.97;4972939;28;20381;-82
2023/12/11 16:03:52;;;;;;;;;;;;;;;5.52;100.00;98907.56;4973370;28;19929;-84
2023/12/11 16:06:18;;;;;;;;;;;;;;;5.51;100.00;98918.13;4886380;29;20074;-82
2023/12/11 16:08:44;;;;;;;;;;;;;;;5.45;100.00;98917.41;4886581;29;20430;-83
2023/12/11 16:11:13;;;;;;;;;;;;;;;5.48;100.00;98907.72;4885134;29;19932;-81
2023/12/11 16:13:38;;;;;;;;;;;;;;;5.44;100.00;98910.47;4885882;29;19920;-79
2023/12/11 16:16:30;;;;;;;;;;;;;;;5.40;100.00;98902.75;4892156;29;19988;-89
2023/12/11 16:18:55;;;;;;;;;;;;;;;5.42;100.00;98914.03;4882699;29;19927;-81
2023/12/11 16:21:21;;;;;;;;;;;;;;;5.38;100.00;98909.84;4885652;29;19919;-80
2023/12/11 16:23:47;;;;;;;;;;;;;;;5.33;100.00;98917.00;4886352;29;19924;-82
2023/12/11 16:26:16;;;;;;;;;;;;;;;5.38;100.00;98915.09;4876626;29;20302;-80
2023/12/11 16:28:41;;;;;;;;;;;;;;;5.38;100.00;98912.47;4885899;29;20371;-79
2023/12/11 16:31:06;;;;;;;;;;;;;;;5.33;100.00;98914.38;4892934;29;19935;-81
2023/12/11 16:33:31;;;;;;;;;;;;;;;5.28;100.00;98912.78;4886438;29;20379;-81
2023/12/11 16:35:57;;;;;;;;;;;;;;;5.32;100.00;98925.81;4892311;29;20428;-81
2023/12/11 16:38:22;;;;;;;;;;;;;;;5.27;100.00;98918.94;4952514;28;20005;-80
2023/12/11 16:40:47;;;;;;;;;;;;;;;5.27;100.00;98918.09;4955740;28;20021;-81
2023/12/11 16:43:12;;;;;;;;;;;;;;;5.25;100.00;98914.66;4972273;28;20381;-80
2023/12/11 16:45:42;;;;;;;;;;;;;;;5.23;100.00;98914.72;4973034;28;20396;-86
2023/12/11 16:48:07;;;;;;;;;;;;;;;5.20;100.00;98927.97;4963702;28;19921;-83
2023/12/11 16:50:32;;;;;;;;;;;;;;;5.22;100.00;98920.88;4973220;28;19924;-82
2023/12/11 16:52:57;;;;;;;;;;;;;;;5.20;100.00;98927.97;4972814;28;19929;-82
2023/12/11 16:55:23;;;;;;;;;;;;;;;5.22;100.00;98931.38;4973078;28;20380;-85
2023/12/11 16:57:48;;;;;;;;;;;;;;;5.21;100.00;98919.16;4971884;28;19958;-85
2023/12/11 17:00:13;;;;;;;;;;;;;;;5.22;100.00;98933.16;4973019;28;20362;-82
2023/12/11 17:02:38;;;;;;;;;;;;;;;5.20;100.00;98933.22;4956024;28;19918;-83
2023/12/11 17:05:04;;;;;;;;;;;;;;;5.21;100.00;98932.28;4973075;28;19994;-82
2023/12/11 17:07:30;;;;;;;;;;;;;;;5.20;100.00;98932.31;4973402;28;19938;-80
2023/12/11 17:09:55;;;;;;;;;;;;;;;5.14;100.00;98928.16;4973116;28;19918;-83
2023/12/11 17:12:20;;;;;;;;;;;;;;;5.15;100.00;98935.09;4971974;28;19922;-81
2023/12/11 17:14:45;;;;;;;;;;;;;;;5.17;100.00;98937.69;4973180;28;19918;-82
2023/12/11 17:17:11;;;;;;;;;;;;;;;5.16;100.00;98939.47;4972992;28;20037;-82
2023/12/11 17:19:36;;;;;;;;;;;;;;;5.15;100.00;98945.63;4955699;28;19925;-82
2023/12/11 17:22:01;;;;;;;;;;;;;;;5.16;100.00;98941.25;4955652;28;19929;-82
2023/12/11 17:24:26;;;;;;;;;;;;;;;5.17;100.00;98949.06;4939635;28;19918;-81
2023/12/11 17:26:52;;;;;;;;;;;;;;;5.12;100.00;98948.34;4971847;28;19949;-80
2023/12/11 17:29:17;;;;;;;;;;;;;;;5.08;100.00;98944.13;4972798;28;19922;-83
2023/12/11 17:31:42;;;;;;;;;;;;;;;5.05;100.00;98946.84;4955693;28;19929;-81
2023/12/11 17:34:08;;;;;;;;;;;;;;;5.10;100.00;98963.31;4955611;28;19919;-82
2023/12/11 17:36:33;;;;;;;;;;;;;;;5.02;100.00;98960.09;4955509;28;19928;-81
2023/12/11 17:38:58;;;;;;;;;;;;;;;5.03;100.00;98959.19;4972965;28;19949;-80
2023/12/11 17:41:23;;;;;;;;;;;;;;;5.02;100.00;98966.19;4954404;28;19922;-81
2023/12/11 17:43:50;;;;;;;;;;;;;;;5.05;100.00;98973.09;4955603;28;19957;-88
2023/12/11 17:46:15;;;;;;;;;;;;;;;5.02;100.00;98981.94;4955371;28;19922;-80
2023/12/11 17:48:41;;;;;;;;;;;;;;;5.04;100.00;98987.13;4969889;28;19941;-81
2023/12/11 17:51:07;;;;;;;;;;;;;;;4.99;100.00;98984.66;4974230;28;19929;-80
2023/12/11 17:53:32;;;;;;;;;;;;;;;5.01;100.00;98984.59;4975858;28;19919;-81
2023/12/11 17:55:57;;;;;;;;;;;;;;;4.98;100.00;98988.22;4955483;28;19918;-81
2023/12/11 17:58:22;;;;;;;;;;;;;;;5.02;100.00;98988.97;4958459;28;19934;-84
2023/12/11 18:00:48;;;;;;;;;;;;;;;5.04;100.00;98987.13;4959327;28;19990;-80
2023/12/11 18:03:14;;;;;;;;;;;;;;;4.97;100.00;98996.13;4959082;28;19937;-81
2023/12/11 18:05:40;;;;;;;;;;;;;;;4.96;100.00;98992.63;4976390;28;20344;-80
2023/12/11 18:08:05;;;;;;;;;;;;;;;4.98;100.00;98995.22;4976258;28;19961;-82
2023/12/11 18:10:30;;;;;;;;;;;;;;;4.97;100.00;98998.75;4976066;28;19973;-82
2023/12/11 18:12:55;;;;;;;;;;;;;;;4.97;100.00;99004.00;4974937;28;20370;-80
2023/12/11 18:15:20;;;;;;;;;;;;;;;4.94;100.00;98999.72;4975737;28;20274;-80
2023/12/11 18:17:46;;;;;;;;;;;;;;;4.91;100.00;99000.69;4976310;28;19918;-83
2023/12/11 18:20:12;;;;;;;;;;;;;;;4.94;100.00;99004.97;4958303;28;19964;-82
2023/12/11 18:22:40;;;;;;;;;;;;;;;4.95;100.00;99000.59;4958786;28;20373;-83
2023/12/11 18:25:05;;;;;;;;;;;;;;;4.96;100.00;98999.66;4975315;28;20370;-81
2023/12/11 18:27:34;;;;;;;;;;;;;;;4.91;100.00;98999.81;4974507;28;19925;-82
2023/12/11 18:30:00;;;;;;;;;;;;;;;4.93;100.00;99013.75;4975972;28;19938;-80
2023/12/11 18:32:26;;;;;;;;;;;;;;;4.95;100.00;99008.47;4975914;28;20005;-82
2023/12/11 18:34:51;;;;;;;;;;;;;;;4.93;100.00;99010.25;4966472;28;20310;-83
2023/12/11 18:37:17;;;;;;;;;;;;;;;4.97;100.00;99014.53;4975758;28;19918;-84
2023/12/11 18:39:42;;;;;;;;;;;;;;;4.94;100.00;99018.09;4975796;28;19922;-81
2023/12/11 18:42:08;;;;;;;;;;;;;;;4.97;100.00;99025.03;4957208;28;19957;-81
2023/12/11 18:44:33;;;;;;;;;;;;;;;4.97;100.00;99038.16;4958036;28;19918;-82
2023/12/11 18:46:58;;;;;;;;;;;;;;;5.01;100.00;99034.50;4958356;28;20024;-81
2023/12/11 18:49:24;;;;;;;;;;;;;;;4.97;100.00;99040.78;4957757;28;20342;-84
2023/12/11 18:51:49;;;;;;;;;;;;;;;4.94;100.00;99038.25;4975508;28;19921;-81
2023/12/11 18:54:15;;;;;;;;;;;;;;;4.98;100.00;99042.47;4975479;28;19918;-81
2023/12/11 18:56:40;;;;;;;;;;;;;;;4.97;100.00;99044.25;4957258;28;19919;-83
2023/12/11 18:59:05;;;;;;;;;;;;;;;4.89;100.00;99048.88;4975256;28;20021;-81
2023/12/11 19:01:31;;;;;;;;;;;;;;;4.94;100.00;99049.59;4958230;28;20436;-81
2023/12/11 19:03:56;;;;;;;;;;;;;;;4.89;100.00;99054.97;4974585;28;19924;-83
2023/12/11 19:06:21;;;;;;;;;;;;;;;4.89;100.00;99059.38;4957879;28;19926;-82
2023/12/11 19:08:46;;;;;;;;;;;;;;;4.86;100.00;99057.69;4957850;28;19918;-82
2023/12/11 19:11:12;;;;;;;;;;;;;;;4.90;100.00;99059.34;4973782;28;19922;-82
2023/12/11 19:13:37;;;;;;;;;;;;;;;4.95;100.00;99060.97;4957694;28;19965;-84
2023/12/11 19:16:05;;;;;;;;;;;;;;;4.85;100.00;99065.63;4975025;28;20004;-84
2023/12/11 19:18:31;;;;;;;;;;;;;;;4.86;100.00;99064.72;4957542;28;20020;-81
2023/12/11 19:20:56;;;;;;;;;;;;;;;4.89;100.00;99062.00;4957631;28;20001;-83
2023/12/11 19:23:22;;;;;;;;;;;;;;;4.89;100.00;99065.47;4974788;28;20060;-82
2023/12/11 19:25:47;;;;;;;;;;;;;;;4.87;100.00;99064.69;4957586;28;19918;-83
2023/12/11 19:28:12;;;;;;;;;;;;;;;4.89;100.00;99062.88;4973613;28;19918;-82
2023/12/11 19:30:37;;;;;;;;;;;;;;;4.86;100.00;99070.81;4957473;28;19918;-82
2023/12/11 19:33:03;;;;;;;;;;;;;;;4.86;100.00;99062.94;4957351;28;19922;-82
2023/12/11 19:35:28;;;;;;;;;;;;;;;4.87;100.00;99069.94;4957192;28;20013;-82
2023/12/11 19:37:53;;;;;;;;;;;;;;;4.86;100.00;99073.44;4974744;28;19929;-81
2023/12/11 19:40:18;;;;;;;;;;;;;;;4.87;100.00;99071.72;4957244;28;20408;-83
2023/12/11 19:42:48;;;;;;;;;;;;;;;4.86;100.00;99073.44;4955928;28;19921;-86
2023/12/11 19:45:13;;;;;;;;;;;;;;;4.87;100.00;99077.81;4974001;28;19930;-82
2023/12/11 19:47:39;;;;;;;;;;;;;;;4.85;100.00;99066.50;4956979;28;19919;-81
2023/12/11 19:50:05;;;;;;;;;;;;;;;4.86;100.00;99067.34;4974333;28;19922;-81
2023/12/11 19:52:30;;;;;;;;;;;;;;;4.87;100.00;99072.56;4973257;28;19918;-81
2023/12/11 19:54:55;;;;;;;;;;;;;;;4.89;100.00;99076.00;4974260;28;19973;-80
2023/12/11 19:57:21;;;;;;;;;;;;;;;4.90;100.00;99080.34;4955479;28;19918;-78
2023/12/11 19:59:46;;;;;;;;;;;;;;;4.85;100.00;99078.75;4974282;28;19926;-80
2023/12/11 20:02:11;;;;;;;;;;;;;;;4.85;100.00;99076.13;4974133;28;20345;-79
2023/12/11 20:04:40;;;;;;;;;;;;;;;4.86;100.00;99077.84;4974011;28;19962;-80
2023/12/11 20:07:05;;;;;;;;;;;;;;;4.85;100.00;99069.13;4974025;28;19940;-81
2023/12/11 20:09:31;;;;;;;;;;;;;;;4.84;100.00;99067.41;4973971;28;20333;-82
2023/12/11 20:11:56;;;;;;;;;;;;;;;4.82;100.00;99069.22;4972705;28;19969;-80
2023/12/11 20:14:21;;;;;;;;;;;;;;;4.85;100.00;99069.13;4972950;28;19924;-82
2023/12/11 20:16:46;;;;;;;;;;;;;;;4.78;100.00;99064.97;4973992;28;19930;-82
2023/12/11 20:19:12;;;;;;;;;;;;;;;4.76;100.00;99058.91;4973716;28;19944;-83
2023/12/11 20:21:40;;;;;;;;;;;;;;;4.71;100.00;99064.28;4973918;28;19972;-82
2023/12/11 20:24:05;;;;;;;;;;;;;;;4.76;100.00;99063.31;4973837;28;20360;-82
2023/12/11 20:26:31;;;;;;;;;;;;;;;5.05;100.00;99065.00;4972409;28;19956;-79
2023/12/11 20:28:56;;;;;;;;;;;;;;;5.08;100.00;99068.41;4956394;28;20006;-80
2023/12/11 20:31:21;;;;;;;;;;;;;;;4.96;100.00;99070.56;4956151;28;20388;-80
2023/12/11 20:33:47;;;;;;;;;;;;;;;4.94;100.00;99073.22;4973551;28;20358;-81
2023/12/11 20:36:16;;;;;;;;;;;;;;;4.93;100.00;99079.41;4973651;28;20009;-82
2023/12/11 20:38:41;;;;;;;;;;;;;;;4.90;100.00;99087.38;4956091;28;20016;-83